createdAt,value
2018-10-18T00:01:51.637Z,20.40
2018-10-18T00:04:24.358Z,20.90
2018-10-18T00:06:56.158Z,20.00
2018-10-18T00:09:27.951Z,19.07
2018-10-18T00:12:02.222Z,20.80
2018-10-18T00:14:34.497Z,20.53
2018-10-18T00:17:10.917Z,21.33
2018-10-18T00:19:43.387Z,21.00
2018-10-18T00:22:23.189Z,19.83
2018-10-18T00:24:55.120Z,20.33
2018-10-18T00:27:34.859Z,18.53
2018-10-18T00:30:12.850Z,19.47
2018-10-18T00:32:52.696Z,18.90
2018-10-18T00:35:27.046Z,19.53
2018-10-18T00:38:06.529Z,19.63
2018-10-18T00:40:38.148Z,20.27
2018-10-18T00:43:09.827Z,20.93
2018-10-18T00:45:49.223Z,19.37
2018-10-18T00:48:26.629Z,19.87
2018-10-18T00:51:07.535Z,20.23
2018-10-18T00:53:39.687Z,18.40
2018-10-18T00:56:19.159Z,20.37
2018-10-18T00:58:56.904Z,21.90
2018-10-18T01:01:33.201Z,19.43
2018-10-18T01:04:05.392Z,19.57
2018-10-18T01:06:45.267Z,19.07
2018-10-18T01:09:24.911Z,19.20
2018-10-18T01:11:56.800Z,18.70
2018-10-18T01:14:28.698Z,20.90
2018-10-18T01:17:03.346Z,18.67
2018-10-18T01:19:43.645Z,20.37
2018-10-18T01:22:24.103Z,20.97
2018-10-18T01:25:00.645Z,19.87
2018-10-18T01:27:32.926Z,20.13
2018-10-18T01:30:06.354Z,21.20
2018-10-18T01:32:44.781Z,19.13
2018-10-18T01:35:20.772Z,19.60
2018-10-18T01:37:53.546Z,19.20
2018-10-18T01:40:33.379Z,21.53
2018-10-18T01:43:12.947Z,20.10
2018-10-18T01:45:52.577Z,19.87
2018-10-18T01:48:33.038Z,17.80
2018-10-18T01:51:12.759Z,20.40
2018-10-18T01:53:53.735Z,19.87
2018-10-18T01:56:29.195Z,19.33
2018-10-18T01:59:06.267Z,18.73
2018-10-18T02:01:39.235Z,18.80
2018-10-18T02:04:12.118Z,18.60
2018-10-18T02:06:47.604Z,20.70
2018-10-18T02:09:24.291Z,19.50
2018-10-18T02:11:58.717Z,18.83
2018-10-18T02:14:30.940Z,18.37
2018-10-18T02:17:03.492Z,19.47
2018-10-18T02:19:36.180Z,18.87
2018-10-18T02:22:08.020Z,17.30
2018-10-18T02:24:43.838Z,18.83
2018-10-18T02:27:15.548Z,19.37
2018-10-18T02:29:48.568Z,18.00
2018-10-18T02:32:20.882Z,18.40
2018-10-18T02:34:53.158Z,19.33
2018-10-18T02:37:24.328Z,18.57
2018-10-18T02:40:03.810Z,18.30
2018-10-18T02:42:35.320Z,17.50
2018-10-18T02:45:15.058Z,18.40
2018-10-18T02:47:48.349Z,17.90
2018-10-18T02:50:20.058Z,18.60
2018-10-18T02:52:52.148Z,18.00
2018-10-18T02:55:23.649Z,20.27
2018-10-18T02:57:54.988Z,17.97
2018-10-18T03:00:31.488Z,17.70
2018-10-18T03:03:03.469Z,18.60
2018-10-18T03:05:43.290Z,19.53
2018-10-18T03:08:22.695Z,17.70
2018-10-18T03:11:00.605Z,18.53
2018-10-18T03:13:33.622Z,18.97
2018-10-18T03:16:06.134Z,17.77
2018-10-18T03:18:37.242Z,17.37
2018-10-18T03:21:17.160Z,17.00
2018-10-18T03:23:51.672Z,19.10
2018-10-18T03:26:23.300Z,18.03
2018-10-18T03:28:55.152Z,18.00
2018-10-18T03:31:34.630Z,17.73
2018-10-18T03:34:06.717Z,18.00
2018-10-18T03:36:43.488Z,17.27
2018-10-18T03:39:15.027Z,17.10
2018-10-18T03:41:47.117Z,18.40
2018-10-18T03:44:19.567Z,16.93
2018-10-18T03:46:53.007Z,19.03
2018-10-18T03:49:32.520Z,17.63
2018-10-18T03:52:09.552Z,18.07
2018-10-18T03:54:41.883Z,17.60
2018-10-18T03:57:22.245Z,18.57
2018-10-18T04:00:02.092Z,19.60
2018-10-18T04:02:33.933Z,19.77
2018-10-18T04:05:14.301Z,20.47
2018-10-18T04:07:46.500Z,18.70
2018-10-18T04:10:18.343Z,17.43
2018-10-18T04:12:59.018Z,18.03
2018-10-18T04:15:32.194Z,18.63
2018-10-18T04:18:04.462Z,17.87
2018-10-18T04:20:44.604Z,19.17
2018-10-18T04:23:29.765Z,17.10
2018-10-18T04:26:02.226Z,19.40
2018-10-18T04:28:41.811Z,18.33
2018-10-18T04:31:13.700Z,18.33
2018-10-18T04:33:53.352Z,18.23
2018-10-18T04:36:32.553Z,18.83
2018-10-18T04:39:05.333Z,18.50
2018-10-18T04:41:44.849Z,20.70
2018-10-18T04:44:24.366Z,18.47
2018-10-18T04:47:03.814Z,18.70
2018-10-18T04:49:35.566Z,18.93
2018-10-18T04:52:06.575Z,19.17
2018-10-18T04:54:37.755Z,18.37
2018-10-18T04:57:18.011Z,19.13
2018-10-18T04:59:57.646Z,18.50
2018-10-18T05:02:34.917Z,19.07
2018-10-18T05:05:16.563Z,18.70
2018-10-18T05:07:54.713Z,17.70
2018-10-18T05:10:30.317Z,18.23
2018-10-18T05:13:10.149Z,18.47
2018-10-18T05:15:41.858Z,17.30
2018-10-18T05:18:17.705Z,19.20
2018-10-18T05:20:57.670Z,19.10
2018-10-18T05:23:36.964Z,17.53
2018-10-18T05:26:12.424Z,17.33
2018-10-18T05:28:50.546Z,17.00
2018-10-18T05:31:30.068Z,17.27
2018-10-18T05:34:02.317Z,17.90
2018-10-18T05:36:34.223Z,17.90
2018-10-18T05:39:13.009Z,19.63
2018-10-18T05:41:50.010Z,18.10
2018-10-18T05:44:26.007Z,17.77
2018-10-18T05:47:01.906Z,17.00
2018-10-18T05:49:39.332Z,16.80
2018-10-18T05:52:19.933Z,17.43
2018-10-18T05:54:56.789Z,18.80
2018-10-18T05:57:35.121Z,17.93
2018-10-18T06:00:15.896Z,17.57
2018-10-18T06:02:55.424Z,18.20
2018-10-18T06:05:35.115Z,17.77
2018-10-18T06:08:08.257Z,18.27
2018-10-18T06:10:49.350Z,17.57
2018-10-18T06:13:28.939Z,18.10
2018-10-18T06:16:09.672Z,18.30
2018-10-18T06:18:45.141Z,19.07
2018-10-18T06:21:22.154Z,17.60
2018-10-18T06:23:58.708Z,19.10
2018-10-18T06:26:34.636Z,17.43
2018-10-18T06:29:08.775Z,19.90
2018-10-18T06:31:46.064Z,19.67
2018-10-18T06:34:16.376Z,16.97
2018-10-18T06:36:46.400Z,20.90
2018-10-18T06:39:16.671Z,17.53
2018-10-18T06:41:47.691Z,17.70
2018-10-18T06:44:19.004Z,17.13
2018-10-18T06:46:50.562Z,15.97
2018-10-18T06:49:20.513Z,16.43
2018-10-18T06:51:51.750Z,17.70
2018-10-18T06:54:23.169Z,16.83
2018-10-18T06:57:02.639Z,18.03
2018-10-18T06:59:32.728Z,17.93
2018-10-18T07:02:02.578Z,17.30
2018-10-18T07:04:33.859Z,16.83
2018-10-18T07:07:19.506Z,16.20
2018-10-18T07:09:53.029Z,18.67
2018-10-18T07:12:26.083Z,17.43
2018-10-18T07:14:57.818Z,16.77
2018-10-18T07:17:40.969Z,18.43
2018-10-18T07:20:11.649Z,16.07
2018-10-18T07:22:58.890Z,22.17
2018-10-18T07:25:29.411Z,17.37
2018-10-18T07:28:32.133Z,16.20
2018-10-18T07:31:04.269Z,16.03
2018-10-18T07:33:35.991Z,17.77
2018-10-18T07:36:07.070Z,19.80
2018-10-18T07:38:47.830Z,16.80
2018-10-18T07:41:19.351Z,16.13
2018-10-18T07:43:51.088Z,15.93
2018-10-18T07:46:24.218Z,15.63
2018-10-18T07:48:54.630Z,15.43
2018-10-18T07:51:26.778Z,16.30
2018-10-18T07:53:59.087Z,14.87
2018-10-18T07:56:37.237Z,15.73
2018-10-18T07:59:09.164Z,16.07
2018-10-18T08:01:40.868Z,14.57
2018-10-18T08:04:13.118Z,16.53
2018-10-18T08:06:46.171Z,15.67
2018-10-18T08:09:17.469Z,14.97
2018-10-18T08:11:49.088Z,14.93
2018-10-18T08:14:20.949Z,15.70
2018-10-18T08:16:55.947Z,15.03
2018-10-18T08:19:27.919Z,14.83
2018-10-18T08:21:58.938Z,16.87
2018-10-18T08:24:31.478Z,16.27
2018-10-18T08:27:06.410Z,14.60
2018-10-18T08:29:39.047Z,14.13
2018-10-18T08:32:11.085Z,14.77
2018-10-18T08:34:42.449Z,14.20
2018-10-18T08:37:35.253Z,13.87
2018-10-18T08:40:08.690Z,13.60
2018-10-18T08:42:42.349Z,15.77
2018-10-18T08:45:14.638Z,13.80
2018-10-18T08:48:12.258Z,14.70
2018-10-18T08:50:45.219Z,13.73
2018-10-18T08:53:15.878Z,13.73
2018-10-18T08:55:47.181Z,13.53
2018-10-18T08:58:18.308Z,13.20
2018-10-18T09:00:49.708Z,13.07
2018-10-18T09:03:19.824Z,12.80
2018-10-18T09:05:50.610Z,12.23
2018-10-18T09:08:35.723Z,12.67
2018-10-18T09:11:08.588Z,13.43
2018-10-18T09:13:39.948Z,12.83
2018-10-18T09:16:12.783Z,12.30
2018-10-18T09:21:31.590Z,12.70
2018-10-18T09:24:04.909Z,12.00
2018-10-18T09:26:38.497Z,12.43
2018-10-18T09:29:09.487Z,11.73
2018-10-18T09:31:43.914Z,13.40
2018-10-18T09:34:15.580Z,12.83
2018-10-18T09:37:02.317Z,12.77
2018-10-18T09:39:35.569Z,13.07
2018-10-18T09:42:07.550Z,13.13
2018-10-18T09:44:38.588Z,13.00
2018-10-18T09:47:17.119Z,14.00
2018-10-18T09:49:48.870Z,14.30
2018-10-18T09:52:21.669Z,15.47
2018-10-18T09:54:52.475Z,14.77
2018-10-18T09:57:36.230Z,14.03
2018-10-18T10:00:09.318Z,14.77
2018-10-18T10:02:45.339Z,14.23
2018-10-18T10:05:17.189Z,15.63
2018-10-18T10:08:02.087Z,14.87
2018-10-18T10:10:35.441Z,14.27
2018-10-18T10:13:06.231Z,13.73
2018-10-18T10:15:37.796Z,14.70
2018-10-18T10:18:09.929Z,15.67
2018-10-18T10:20:40.478Z,15.77
2018-10-18T10:23:11.790Z,16.93
2018-10-18T10:25:43.309Z,16.80
2018-10-18T10:28:16.892Z,15.83
2018-10-18T10:30:48.399Z,19.63
2018-10-18T10:33:19.822Z,18.53
2018-10-18T10:35:51.461Z,18.87
2018-10-18T10:38:35.616Z,17.70
2018-10-18T10:41:06.940Z,20.17
2018-10-18T10:43:37.811Z,21.13
2018-10-18T10:46:08.790Z,26.33
2018-10-18T10:48:54.508Z,20.77
2018-10-18T10:51:24.729Z,22.37
2018-10-18T10:53:56.561Z,22.43
2018-10-18T10:56:28.050Z,22.10
2018-10-18T10:59:01.383Z,23.87
2018-10-18T11:01:31.769Z,22.87
2018-10-18T11:04:02.258Z,21.50
2018-10-18T11:06:52.508Z,20.57
2018-10-18T11:09:23.653Z,21.10
2018-10-18T11:11:54.033Z,21.37
2018-10-18T11:14:25.179Z,22.23
2018-10-18T11:16:56.912Z,21.60
2018-10-18T11:19:27.518Z,21.33
2018-10-18T11:21:58.829Z,20.00
2018-10-18T11:24:29.667Z,20.20
2018-10-18T11:27:03.312Z,19.63
2018-10-18T11:29:33.789Z,23.17
2018-10-18T11:32:04.605Z,20.90
2018-10-18T11:34:35.270Z,18.43
2018-10-18T11:37:06.722Z,19.03
2018-10-18T11:39:37.878Z,18.70
2018-10-18T11:42:08.619Z,19.30
2018-10-18T11:44:41.218Z,18.33
2018-10-18T11:47:13.419Z,18.43
2018-10-18T11:49:45.178Z,18.47
2018-10-18T11:52:16.588Z,19.20
2018-10-18T11:54:47.450Z,18.13
2018-10-18T11:57:22.011Z,16.80
2018-10-18T11:59:53.170Z,16.57
2018-10-18T12:02:24.170Z,15.37
2018-10-18T12:04:54.752Z,15.00
2018-10-18T12:07:25.789Z,15.57
2018-10-18T12:09:56.584Z,14.73
2018-10-18T12:12:49.631Z,16.10
2018-10-18T12:15:33.969Z,20.00
2018-10-18T12:18:06.040Z,18.43
2018-10-18T12:20:36.451Z,17.77
2018-10-18T12:23:06.726Z,18.50
2018-10-18T12:25:38.338Z,17.73
2018-10-18T12:28:42.957Z,18.27
2018-10-18T12:31:13.379Z,17.87
2018-10-18T12:34:02.289Z,21.37
2018-10-18T12:36:45.643Z,18.47
2018-10-18T12:39:16.033Z,18.80
2018-10-18T12:41:46.464Z,20.07
2018-10-18T12:44:17.662Z,18.40
2018-10-18T12:46:57.544Z,18.90
2018-10-18T12:49:30.889Z,21.07
2018-10-18T12:52:01.132Z,20.00
2018-10-18T12:54:32.209Z,20.73
2018-10-18T12:57:12.770Z,19.57
2018-10-18T12:59:44.439Z,19.90
2018-10-18T13:02:16.071Z,19.73
2018-10-18T13:04:47.029Z,22.17
2018-10-18T13:07:27.351Z,20.37
2018-10-18T13:09:57.744Z,21.90
2018-10-18T13:12:28.192Z,21.10
2018-10-18T13:15:00.301Z,22.53
2018-10-18T13:17:33.189Z,21.00
2018-10-18T13:20:05.857Z,22.60
2018-10-18T13:22:37.738Z,22.03
2018-10-18T13:25:11.463Z,21.90
2018-10-18T13:28:05.199Z,20.27
2018-10-18T13:30:35.893Z,22.53
2018-10-18T13:33:07.490Z,22.70
2018-10-18T13:35:41.248Z,22.93
2018-10-18T13:38:30.237Z,22.50
2018-10-18T13:41:02.089Z,22.60
2018-10-18T13:43:34.101Z,22.57
2018-10-18T13:46:16.815Z,22.23
2018-10-18T13:48:48.038Z,22.67
2018-10-18T13:51:20.889Z,23.03
2018-10-18T13:53:52.240Z,23.67
2018-10-18T13:56:42.979Z,24.30
2018-10-18T13:59:24.154Z,24.30
2018-10-18T14:01:54.288Z,22.97
2018-10-18T14:04:24.369Z,23.17
2018-10-18T14:06:54.620Z,22.03
2018-10-18T14:09:25.421Z,23.93
2018-10-18T14:11:56.598Z,25.07
2018-10-18T14:14:26.731Z,24.37
2018-10-18T14:16:57.887Z,24.73
2018-10-18T14:19:28.115Z,25.57
2018-10-18T14:22:01.549Z,25.13
2018-10-18T14:24:32.303Z,24.77
2018-10-18T14:27:20.756Z,25.90
2018-10-18T14:29:53.011Z,26.33
2018-10-18T14:32:25.210Z,24.33
2018-10-18T14:35:01.678Z,24.57
2018-10-18T14:37:43.099Z,25.47
2018-10-18T14:40:17.259Z,27.30
2018-10-18T14:42:49.030Z,24.83
2018-10-18T14:45:21.018Z,24.70
2018-10-18T14:47:54.932Z,24.43
2018-10-18T14:50:25.020Z,24.17
2018-10-18T14:52:54.760Z,24.67
2018-10-18T14:55:26.550Z,24.17
2018-10-18T14:57:56.670Z,23.97
2018-10-18T15:00:27.988Z,23.23
2018-10-18T15:02:58.509Z,22.27
2018-10-18T15:05:29.040Z,22.83
2018-10-18T15:07:59.510Z,23.77
2018-10-18T15:10:31.707Z,22.93
2018-10-18T15:13:01.699Z,23.03
2018-10-18T15:15:33.840Z,23.00
2018-10-18T15:18:06.948Z,23.23
2018-10-18T15:20:38.967Z,21.17
2018-10-18T15:23:17.934Z,20.40
2018-10-18T15:25:48.136Z,21.87
2018-10-18T15:28:22.858Z,20.23
2018-10-18T15:30:54.583Z,21.43
2018-10-18T15:33:25.543Z,20.53
2018-10-18T15:36:00.628Z,21.23
2018-10-18T15:38:34.525Z,20.90
2018-10-18T15:41:08.688Z,21.43
2018-10-18T15:43:41.569Z,23.77
2018-10-18T15:46:16.081Z,21.73
2018-10-18T15:48:46.766Z,20.57
2018-10-18T15:51:17.521Z,23.67
2018-10-18T15:53:47.795Z,21.30
2018-10-18T15:56:18.324Z,23.30
2018-10-18T15:58:48.573Z,24.27
2018-10-18T16:01:18.393Z,25.03
2018-10-18T16:03:48.206Z,22.77
2018-10-18T16:06:18.186Z,24.37
2018-10-18T16:08:53.593Z,23.40
2018-10-18T16:11:27.951Z,21.80
2018-10-18T16:14:04.264Z,21.43
2018-10-18T16:16:41.147Z,22.57
2018-10-18T16:19:15.664Z,24.60
2018-10-18T16:21:48.121Z,22.90
2018-10-18T16:24:20.718Z,25.23
2018-10-18T16:27:04.245Z,23.23
2018-10-18T16:29:36.793Z,22.77
2018-10-18T16:32:09.883Z,23.90
2018-10-18T16:34:44.054Z,25.17
2018-10-18T16:37:32.985Z,24.10
2018-10-18T16:40:08.501Z,23.97
2018-10-18T16:42:40.865Z,23.57
2018-10-18T16:45:15.923Z,24.73
2018-10-18T16:48:02.138Z,25.93
2018-10-18T16:50:34.343Z,23.30
2018-10-18T16:53:05.447Z,22.67
2018-10-18T16:55:36.384Z,25.00
2018-10-18T16:58:13.041Z,24.27
2018-10-18T17:00:59.751Z,26.17
2018-10-18T17:03:31.691Z,24.37
2018-10-18T17:06:01.796Z,24.63
2018-10-18T17:08:33.484Z,30.33
2018-10-18T17:11:12.523Z,24.50
2018-10-18T17:13:51.656Z,25.37
2018-10-18T17:16:30.863Z,26.40
2018-10-18T17:19:10.508Z,26.03
2018-10-18T17:21:42.194Z,27.77
2018-10-18T17:24:21.343Z,28.23
2018-10-18T17:26:53.478Z,24.83
2018-10-18T17:29:32.552Z,29.43
2018-10-18T17:32:12.079Z,26.87
2018-10-18T17:34:51.453Z,25.63
2018-10-18T17:37:29.361Z,26.80
2018-10-18T17:40:05.012Z,24.60
2018-10-18T17:42:36.132Z,26.13
2018-10-18T17:45:15.135Z,26.00
2018-10-18T17:47:54.453Z,28.17
2018-10-18T17:50:26.185Z,28.37
2018-10-18T17:53:05.229Z,27.83
2018-10-18T17:55:41.352Z,30.33
2018-10-18T17:58:18.848Z,30.03
2018-10-18T18:00:51.784Z,28.30
2018-10-18T18:03:21.543Z,28.07
2018-10-18T18:05:53.165Z,29.97
2018-10-18T18:08:25.705Z,28.30
2018-10-18T18:10:57.657Z,31.37
2018-10-18T18:13:29.464Z,31.10
2018-10-18T18:16:01.509Z,32.53
2018-10-18T18:18:32.584Z,29.73
2018-10-18T18:21:12.425Z,30.00
2018-10-18T18:23:42.912Z,30.47
2018-10-18T18:26:13.725Z,29.80
2018-10-18T18:29:01.505Z,29.73
2018-10-18T18:31:33.157Z,32.63
2018-10-18T18:34:03.995Z,34.57
2018-10-18T18:36:35.825Z,32.87
2018-10-18T18:39:08.168Z,34.10
2018-10-18T18:41:39.906Z,32.93
2018-10-18T18:44:09.915Z,34.50
2018-10-18T18:47:02.145Z,32.37
2018-10-18T18:49:46.555Z,31.23
2018-10-18T18:52:32.140Z,32.50
2018-10-18T18:55:18.499Z,31.80
2018-10-18T18:57:54.485Z,33.00
2018-10-18T19:00:40.936Z,29.83
2018-10-18T19:03:25.055Z,31.23
2018-10-18T19:06:03.029Z,29.33
2018-10-18T19:08:39.944Z,32.60
2018-10-18T19:11:19.985Z,30.97
2018-10-18T19:13:59.746Z,31.30
2018-10-18T19:16:38.006Z,30.93
2018-10-18T19:19:16.214Z,30.67
2018-10-18T19:21:54.814Z,31.43
2018-10-18T19:24:41.564Z,32.23
2018-10-18T19:27:14.534Z,31.00
2018-10-18T19:29:46.415Z,32.30
2018-10-18T19:32:22.003Z,30.43
2018-10-18T19:34:59.399Z,30.30
2018-10-18T19:37:50.953Z,30.27
2018-10-18T19:40:28.305Z,29.90
2018-10-18T19:43:09.173Z,31.13
2018-10-18T19:45:45.501Z,29.57
2018-10-18T19:48:17.384Z,29.83
2018-10-18T19:50:51.779Z,29.77
2018-10-18T19:53:27.588Z,29.57
2018-10-18T19:56:01.958Z,30.60
2018-10-18T19:58:33.141Z,31.43
2018-10-18T20:01:11.883Z,33.27
2018-10-18T20:03:47.295Z,29.97
2018-10-18T20:06:26.864Z,31.80
2018-10-18T20:09:11.005Z,30.97
2018-10-18T20:14:50.324Z,29.90
2018-10-18T20:17:20.755Z,28.90
2018-10-18T20:19:59.052Z,29.23
2018-10-18T20:22:28.774Z,30.27
2018-10-18T20:24:58.813Z,30.03
2018-10-18T20:27:29.546Z,33.47
2018-10-18T20:30:17.245Z,29.50
2018-10-18T20:32:48.426Z,31.73
2018-10-18T20:35:18.604Z,31.03
2018-10-18T20:37:48.964Z,31.33
2018-10-18T20:40:21.184Z,30.87
2018-10-18T20:42:58.104Z,29.83
2018-10-18T20:45:42.954Z,31.73
2018-10-18T20:48:15.135Z,29.67
2018-10-18T20:50:54.541Z,29.90
2018-10-18T20:53:28.176Z,35.30
2018-10-18T20:55:59.534Z,30.93
2018-10-18T20:58:41.048Z,29.93
2018-10-18T21:01:12.325Z,29.53
2018-10-18T21:03:42.766Z,29.63
2018-10-18T21:06:12.906Z,34.00
2018-10-18T21:08:44.344Z,28.73
2018-10-18T21:11:15.435Z,30.30
2018-10-18T21:13:46.665Z,31.83
2018-10-18T21:16:18.385Z,29.70
2018-10-18T21:18:49.887Z,33.10
2018-10-18T21:21:21.234Z,30.67
2018-10-18T21:23:51.408Z,30.37
2018-10-18T21:26:22.704Z,30.80
2018-10-18T21:28:54.468Z,29.17
2018-10-18T21:31:25.824Z,30.00
2018-10-18T21:33:57.326Z,29.33
2018-10-18T21:36:28.635Z,28.43
2018-10-18T21:38:59.921Z,31.33
2018-10-18T21:41:31.204Z,31.43
2018-10-18T21:44:03.438Z,34.77
2018-10-18T21:46:35.125Z,32.80
2018-10-18T21:49:05.314Z,30.47
2018-10-18T21:51:36.465Z,31.17
2018-10-18T21:54:08.734Z,30.67
2018-10-18T21:56:40.204Z,33.57
2018-10-18T21:59:10.645Z,30.83
2018-10-18T22:01:41.644Z,31.07
2018-10-18T22:04:13.203Z,30.80
2018-10-18T22:06:44.534Z,30.13
2018-10-18T22:09:15.977Z,30.50
2018-10-18T22:11:47.305Z,31.03
2018-10-18T22:14:18.422Z,30.83
2018-10-18T22:16:48.273Z,29.17
2018-10-18T22:19:19.284Z,30.67
2018-10-18T22:21:50.495Z,33.57
2018-10-18T22:24:21.975Z,31.60
2018-10-18T22:26:53.423Z,32.00
2018-10-18T22:29:24.654Z,31.13
2018-10-18T22:31:55.693Z,30.53
2018-10-18T22:34:26.877Z,33.77
2018-10-18T22:36:58.616Z,30.50
2018-10-18T22:39:29.866Z,32.00
2018-10-18T22:42:01.155Z,32.37
2018-10-18T22:44:33.195Z,31.07
2018-10-18T22:47:04.889Z,30.63
2018-10-18T22:49:36.545Z,32.60
2018-10-18T22:52:06.525Z,28.97
2018-10-18T22:54:38.683Z,30.10
2018-10-18T22:57:10.222Z,29.87
2018-10-18T22:59:42.127Z,30.97
2018-10-18T23:02:13.574Z,30.43
2018-10-18T23:04:44.646Z,30.87
2018-10-18T23:07:16.234Z,30.43
2018-10-18T23:09:47.685Z,30.57
2018-10-18T23:12:18.874Z,31.83
2018-10-18T23:14:50.744Z,32.03
2018-10-18T23:17:22.745Z,30.23
2018-10-18T23:19:54.347Z,30.70
2018-10-18T23:22:25.684Z,30.57
2018-10-18T23:24:57.634Z,28.60
2018-10-18T23:27:32.144Z,29.93
2018-10-18T23:30:03.734Z,28.57
2018-10-18T23:32:34.895Z,29.90
2018-10-18T23:35:06.816Z,30.40
2018-10-18T23:37:38.434Z,30.03
2018-10-18T23:40:10.133Z,29.83
2018-10-18T23:42:40.274Z,32.77
2018-10-18T23:45:10.884Z,30.37
2018-10-18T23:47:42.007Z,32.30
2018-10-18T23:50:13.544Z,30.97
2018-10-18T23:52:44.604Z,32.20
2018-10-18T23:55:14.773Z,30.70
2018-10-18T23:57:46.375Z,32.00
